createdAt,value
2019-04-01T00:02:38.386Z,101241.70
2019-04-01T00:05:24.280Z,101244.09
2019-04-01T00:08:10.622Z,101244.31
2019-04-01T00:10:56.808Z,101244.31
2019-04-01T00:13:43.072Z,101234.86
2019-04-01T00:16:30.236Z,101234.86
2019-04-01T00:19:16.271Z,101236.72
2019-04-01T00:22:02.680Z,101234.38
2019-04-01T00:24:49.396Z,101230.48
2019-04-01T00:27:35.432Z,101232.06
2019-04-01T00:30:21.744Z,101233.87
2019-04-01T00:33:08.408Z,101232.59
2019-04-01T00:35:54.704Z,101232.59
2019-04-01T00:38:40.707Z,101229.58
2019-04-01T00:41:27.019Z,101232.36
2019-04-01T00:44:13.109Z,101230.42
2019-04-01T00:46:59.230Z,101225.30
2019-04-01T00:49:45.964Z,101227.23
2019-04-01T00:52:32.072Z,101226.17
2019-04-01T00:55:18.279Z,101226.17
2019-04-01T00:58:04.668Z,101222.53
2019-04-01T01:00:50.985Z,101222.75
2019-04-01T01:03:37.169Z,101214.27
2019-04-01T01:06:23.577Z,101217.63
2019-04-01T01:09:10.404Z,101214.31
2019-04-01T01:11:56.705Z,101214.31
2019-04-01T01:14:42.606Z,101210.31
2019-04-01T01:17:29.232Z,101208.05
2019-04-01T01:20:15.448Z,101209.71
2019-04-01T01:23:01.513Z,101209.03
2019-04-01T01:25:47.737Z,101208.52
2019-04-01T01:28:34.247Z,101212.05
2019-04-01T01:31:20.333Z,101201.28
2019-04-01T01:34:06.839Z,101205.14
2019-04-01T01:36:53.666Z,101203.37
2019-04-01T01:39:40.280Z,101191.41
2019-04-01T01:42:26.389Z,101192.75
2019-04-01T01:45:12.605Z,101189.78
2019-04-01T01:47:59.281Z,101193.47
2019-04-01T01:50:45.744Z,101191.09
2019-04-01T01:53:31.701Z,101189.27
2019-04-01T01:56:18.328Z,101186.85
2019-04-01T01:59:04.829Z,101183.31
2019-04-01T02:01:50.719Z,101183.10
2019-04-01T02:04:37.537Z,101184.76
2019-04-01T02:07:24.055Z,101176.83
2019-04-01T02:10:10.585Z,101180.52
2019-04-01T02:12:57.254Z,101179.80
2019-04-01T02:15:43.469Z,101174.13
2019-04-01T02:18:29.541Z,101172.22
2019-04-01T02:21:16.517Z,101178.55
2019-04-01T02:24:02.533Z,101174.27
2019-04-01T02:26:48.715Z,101171.92
2019-04-01T02:29:37.739Z,101176.18
2019-04-01T02:32:23.827Z,101172.13
2019-04-01T02:35:10.145Z,101169.66
2019-04-01T02:37:56.851Z,101168.23
2019-04-01T02:40:43.175Z,101175.08
2019-04-01T02:43:29.559Z,101177.03
2019-04-01T02:46:15.763Z,101174.89
2019-04-01T02:49:01.747Z,101175.89
2019-04-01T02:51:48.320Z,101172.81
2019-04-01T02:54:34.579Z,101181.88
2019-04-01T02:57:21.123Z,101177.70
2019-04-01T03:00:08.107Z,101173.97
2019-04-01T03:02:54.692Z,101173.63
2019-04-01T03:05:40.579Z,101168.45
2019-04-01T03:08:27.009Z,101170.26
2019-04-01T03:11:13.160Z,101168.35
2019-04-01T03:13:59.293Z,101162.17
2019-04-01T03:16:47.321Z,101156.31
2019-04-01T03:19:33.527Z,101158.81
2019-04-01T03:22:19.524Z,101156.50
2019-04-01T03:25:05.831Z,101153.77
2019-04-01T03:27:51.959Z,101152.78
2019-04-01T03:30:38.028Z,101156.14
2019-04-01T03:33:24.124Z,101152.79
2019-04-01T03:36:10.680Z,101153.44
2019-04-01T03:38:57.430Z,101144.55
2019-04-01T03:41:44.134Z,101145.17
2019-04-01T03:44:30.581Z,101145.01
2019-04-01T03:47:17.307Z,101146.69
2019-04-01T03:50:03.690Z,101142.06
2019-04-01T03:52:53.240Z,101147.57
2019-04-01T03:55:39.729Z,101141.19
2019-04-01T03:58:25.817Z,101141.80
2019-04-01T04:01:13.567Z,101137.39
2019-04-01T04:04:00.278Z,101143.50
2019-04-01T04:06:46.693Z,101143.96
2019-04-01T04:09:33.007Z,101136.89
2019-04-01T04:12:21.878Z,101138.02
2019-04-01T04:15:08.518Z,101141.63
2019-04-01T04:17:54.633Z,101136.18
2019-04-01T04:20:41.507Z,101140.94
2019-04-01T04:23:27.499Z,101140.82
2019-04-01T04:26:13.996Z,101140.70
2019-04-01T04:29:00.598Z,101140.57
2019-04-01T04:31:48.642Z,101142.09
2019-04-01T04:34:34.974Z,101142.92
2019-04-01T04:37:22.478Z,101145.20
2019-04-01T04:40:08.786Z,101144.71
2019-04-01T04:42:55.385Z,101145.58
2019-04-01T04:45:41.487Z,101150.91
2019-04-01T04:48:27.466Z,101147.42
2019-04-01T04:51:14.582Z,101149.75
2019-04-01T04:54:01.399Z,101142.91
2019-04-01T04:56:47.821Z,101146.95
2019-04-01T04:59:33.878Z,101147.55
2019-04-01T05:02:19.881Z,101151.03
2019-04-01T05:05:06.561Z,101150.97
2019-04-01T05:07:52.485Z,101158.58
2019-04-01T05:10:38.685Z,101154.08
2019-04-01T05:13:25.189Z,101157.16
2019-04-01T05:16:11.235Z,101163.73
2019-04-01T05:18:57.354Z,101153.58
2019-04-01T05:21:43.043Z,101148.34
2019-04-01T05:24:30.493Z,101148.72
2019-04-01T05:27:21.209Z,101149.88
2019-04-01T05:30:07.665Z,101161.92
2019-04-01T05:32:54.980Z,101159.55
2019-04-01T05:35:41.550Z,101160.89
2019-04-01T05:38:28.800Z,101157.78
2019-04-01T05:41:15.156Z,101154.89
2019-04-01T05:44:02.458Z,101162.23
2019-04-01T05:46:55.033Z,101162.23
2019-04-01T05:49:42.418Z,101165.73
2019-04-01T05:52:29.135Z,101165.73
2019-04-01T05:55:16.462Z,101166.61
2019-04-01T05:58:03.372Z,101170.44
2019-04-01T06:00:59.098Z,101171.09
2019-04-01T06:03:45.434Z,101169.68
2019-04-01T06:06:32.278Z,101169.68
2019-04-01T06:09:18.615Z,101165.87
2019-04-01T06:12:05.039Z,101170.17
2019-04-01T06:14:51.710Z,101170.17
2019-04-01T06:17:37.631Z,101171.78
2019-04-01T06:20:23.903Z,101172.23
2019-04-01T06:23:10.474Z,101171.57
2019-04-01T06:25:56.980Z,101168.55
2019-04-01T06:28:43.212Z,101171.58
2019-04-01T06:31:30.282Z,101172.97
2019-04-01T06:34:15.784Z,101173.53
2019-04-01T06:37:02.003Z,101172.04
2019-04-01T06:39:48.510Z,101173.41
2019-04-01T06:42:35.318Z,101165.95
2019-04-01T06:45:21.209Z,101166.96
2019-04-01T06:48:08.228Z,101172.19
2019-04-01T06:50:54.353Z,101172.58
2019-04-01T06:53:40.314Z,101163.13
2019-04-01T06:56:27.844Z,101168.68
2019-04-01T06:59:13.735Z,101165.09
2019-04-01T07:02:00.232Z,101165.50
2019-04-01T07:04:46.841Z,101165.49
2019-04-01T07:07:33.142Z,101165.37
2019-04-01T07:10:19.545Z,101163.89
2019-04-01T07:13:06.143Z,101163.23
2019-04-01T07:15:52.184Z,101165.37
2019-04-01T07:18:38.340Z,101166.70
2019-04-01T07:21:24.554Z,101167.39
2019-04-01T07:24:13.002Z,101161.39
2019-04-01T07:26:59.772Z,101155.84
2019-04-01T07:29:46.679Z,101161.59
2019-04-01T07:32:33.010Z,101155.81
2019-04-01T07:35:20.026Z,101164.15
2019-04-01T07:38:06.495Z,101155.89
2019-04-01T07:40:52.517Z,101156.88
2019-04-01T07:43:39.025Z,101158.89
2019-04-01T07:46:25.400Z,101160.77
2019-04-01T07:49:11.528Z,101157.80
2019-04-01T07:51:57.622Z,101151.84
2019-04-01T07:54:44.059Z,101150.01
2019-04-01T07:57:32.655Z,101149.69
2019-04-01T08:00:26.751Z,101156.89
2019-04-01T08:03:14.046Z,101151.23
2019-04-01T08:06:00.347Z,101149.15
2019-04-01T08:08:46.980Z,101149.15
2019-04-01T08:11:33.070Z,101152.22
2019-04-01T08:14:21.322Z,101149.73
2019-04-01T08:17:08.791Z,101149.03
2019-04-01T08:19:54.990Z,101147.73
2019-04-01T08:22:43.238Z,101139.07
2019-04-01T08:25:29.499Z,101133.69
2019-04-01T08:28:16.823Z,101140.52
2019-04-01T08:31:03.427Z,101143.43
2019-04-01T08:33:50.461Z,101143.94
2019-04-01T08:36:36.634Z,101142.19
2019-04-01T08:39:22.831Z,101135.23
2019-04-01T08:42:11.893Z,101138.72
2019-04-01T08:44:57.789Z,101133.42
2019-04-01T08:47:43.878Z,101134.03
2019-04-01T08:50:30.895Z,101131.67
2019-04-01T08:53:17.194Z,101125.39
2019-04-01T08:56:03.597Z,101125.78
2019-04-01T08:58:52.809Z,101120.91
2019-04-01T09:01:39.107Z,101120.36
2019-04-01T09:04:25.158Z,101114.17
2019-04-01T09:07:12.068Z,101107.86
2019-04-01T09:09:58.479Z,101106.16
2019-04-01T09:12:44.766Z,101111.96
2019-04-01T09:15:31.623Z,101112.22
2019-04-01T09:18:17.683Z,101101.62
2019-04-01T09:21:03.675Z,101102.10
2019-04-01T09:23:52.327Z,101099.34
2019-04-01T09:26:38.731Z,101107.42
2019-04-01T09:29:24.789Z,101095.55
2019-04-01T09:32:11.681Z,101090.42
2019-04-01T09:34:57.354Z,101088.98
2019-04-01T09:37:43.224Z,101090.84
2019-04-01T09:40:30.395Z,101084.41
2019-04-01T09:43:16.427Z,101076.61
2019-04-01T09:46:04.159Z,101072.72
2019-04-01T09:48:50.871Z,101071.43
2019-04-01T09:51:48.589Z,101067.08
2019-04-01T09:54:26.235Z,101064.08
2019-04-01T09:57:17.682Z,101058.61
2019-04-01T10:00:02.271Z,101061.45
2019-04-01T10:02:48.303Z,101060.66
2019-04-01T10:05:34.406Z,101031.69
2019-04-01T10:08:21.722Z,101047.69
2019-04-01T10:11:08.531Z,101041.90
2019-04-01T10:13:54.832Z,101039.90
2019-04-01T10:16:41.438Z,101035.16
2019-04-01T10:19:29.172Z,101030.32
2019-04-01T10:22:15.441Z,101022.34
2019-04-01T10:25:02.279Z,101024.35
2019-04-01T10:27:48.382Z,101017.77
2019-04-01T10:30:34.415Z,101012.63
2019-04-01T10:33:20.464Z,101005.55
2019-04-01T10:36:06.358Z,100997.17
2019-04-01T10:38:52.646Z,100989.34
2019-04-01T10:41:39.357Z,100990.85
2019-04-01T10:44:25.547Z,100983.63
2019-04-01T10:47:12.106Z,100984.41
2019-04-01T10:49:58.625Z,100978.81
2019-04-01T10:52:44.864Z,100972.05
2019-04-01T10:55:31.321Z,100970.91
2019-04-01T10:58:17.572Z,100971.59
2019-04-01T11:01:04.139Z,100964.58
2019-04-01T11:03:50.663Z,100961.23
2019-04-01T11:06:37.046Z,100961.17
2019-04-01T11:09:37.626Z,100963.42
2019-04-01T11:12:11.635Z,100952.72
2019-04-01T11:14:57.711Z,100951.25
2019-04-01T11:17:44.408Z,100951.17
2019-04-01T11:20:30.853Z,100950.88
2019-04-01T11:23:17.290Z,100954.56
2019-04-01T11:26:04.165Z,100953.87
2019-04-01T11:28:50.768Z,100939.42
2019-04-01T11:31:36.620Z,100940.61
2019-04-01T11:34:22.716Z,100934.48
2019-04-01T11:37:11.544Z,100932.41
2019-04-01T11:39:58.253Z,100916.92
2019-04-01T11:42:44.672Z,100918.52
2019-04-01T11:45:30.843Z,100920.08
2019-04-01T11:48:17.354Z,100919.23
2019-04-01T11:51:04.190Z,100922.25
2019-04-01T11:53:50.691Z,100923.04
2019-04-01T11:56:37.360Z,100917.36
2019-04-01T11:59:23.459Z,100903.84
2019-04-01T12:02:09.971Z,100911.81
2019-04-01T12:04:56.707Z,100896.14
2019-04-01T12:07:42.971Z,100892.08
2019-04-01T12:10:29.219Z,100891.28
2019-04-01T12:13:15.208Z,100887.56
2019-04-01T12:16:01.978Z,100887.39
2019-04-01T12:18:49.777Z,100880.73
2019-04-01T12:21:35.657Z,100872.67
2019-04-01T12:24:22.076Z,100873.47
2019-04-01T12:27:09.243Z,100864.83
2019-04-01T12:29:55.765Z,100867.44
2019-04-01T12:32:42.229Z,100862.55
2019-04-01T12:35:28.457Z,100855.16
2019-04-01T12:38:14.523Z,100845.38
2019-04-01T12:41:00.836Z,100849.66
2019-04-01T12:43:46.731Z,100840.04
2019-04-01T12:46:34.166Z,100838.52
2019-04-01T12:49:20.667Z,100833.55
2019-04-01T12:52:06.952Z,100829.00
2019-04-01T12:54:53.571Z,100827.91
2019-04-01T12:57:40.116Z,100824.13
2019-04-01T13:00:29.010Z,100815.23
2019-04-01T13:03:15.048Z,100801.52
2019-04-01T13:06:01.678Z,100802.27
2019-04-01T13:08:47.692Z,100802.45
2019-04-01T13:11:36.212Z,100795.21
2019-04-01T13:14:22.205Z,100786.77
2019-04-01T13:17:08.912Z,100785.31
2019-04-01T13:19:55.005Z,100780.98
2019-04-01T13:22:41.859Z,100772.34
2019-04-01T13:25:27.826Z,100766.37
2019-04-01T13:28:13.935Z,100766.30
2019-04-01T13:31:00.436Z,100762.52
2019-04-01T13:33:46.532Z,100758.80
2019-04-01T13:36:32.627Z,100749.47
2019-04-01T13:39:19.436Z,100743.98
2019-04-01T13:42:05.561Z,100739.45
2019-04-01T13:44:51.515Z,100743.29
2019-04-01T13:47:41.132Z,100739.75
2019-04-01T13:50:26.292Z,100735.70
2019-04-01T13:53:12.493Z,100723.24
2019-04-01T13:55:58.684Z,100719.55
2019-04-01T13:58:45.105Z,100720.66
2019-04-01T14:01:31.326Z,100714.09
2019-04-01T14:04:20.541Z,100706.46
2019-04-01T14:07:07.196Z,100702.03
2019-04-01T14:09:58.973Z,100706.75
2019-04-01T14:12:45.164Z,100687.75
2019-04-01T14:15:31.773Z,100690.86
2019-04-01T14:18:17.810Z,100684.97
2019-04-01T14:21:15.138Z,100680.23
2019-04-01T14:23:52.193Z,100668.48
2019-04-01T14:26:38.189Z,100666.41
2019-04-01T14:29:25.201Z,100664.88
2019-04-01T14:32:11.371Z,100656.26
2019-04-01T14:34:57.693Z,100652.80
2019-04-01T14:37:44.195Z,100643.22
2019-04-01T14:40:32.568Z,100640.61
2019-04-01T14:43:18.205Z,100646.11
2019-04-01T14:46:05.816Z,100633.48
2019-04-01T14:48:51.962Z,100628.81
2019-04-01T14:51:38.665Z,100626.66
2019-04-01T14:54:25.385Z,100619.81
2019-04-01T14:57:11.596Z,100618.08
2019-04-01T14:59:57.274Z,100615.69
2019-04-01T15:02:44.180Z,100612.81
2019-04-01T15:05:31.335Z,100613.75
2019-04-01T15:08:19.408Z,100605.73
2019-04-01T15:11:05.741Z,100603.37
2019-04-01T15:13:51.653Z,100597.97
2019-04-01T15:16:37.700Z,100591.19
2019-04-01T15:19:24.125Z,100591.91
2019-04-01T15:22:10.433Z,100586.37
2019-04-01T15:24:56.225Z,100581.42
2019-04-01T15:27:43.151Z,100571.83
2019-04-01T15:30:32.007Z,100576.24
2019-04-01T15:33:21.166Z,100565.59
2019-04-01T15:36:07.377Z,100568.34
2019-04-01T15:38:55.546Z,100555.28
2019-04-01T15:41:41.799Z,100552.84
2019-04-01T15:44:29.459Z,100556.20
2019-04-01T15:47:16.465Z,100547.15
2019-04-01T15:50:02.701Z,100544.89
2019-04-01T15:52:49.136Z,100535.64
2019-04-01T15:55:36.590Z,100533.72
2019-04-01T15:58:24.912Z,100534.92
2019-04-01T16:01:10.985Z,100521.77
2019-04-01T16:03:56.907Z,100520.84
2019-04-01T16:06:44.959Z,100517.20
2019-04-01T16:09:31.933Z,100515.37
2019-04-01T16:12:17.978Z,100518.42
2019-04-01T16:15:05.333Z,100519.00
2019-04-01T16:17:53.826Z,100506.34
2019-04-01T16:20:40.099Z,100503.42
2019-04-01T16:23:26.090Z,100504.34
2019-04-01T16:26:12.598Z,100499.37
2019-04-01T16:28:59.141Z,100502.34
2019-04-01T16:31:47.146Z,100496.25
2019-04-01T16:34:34.720Z,100488.83
2019-04-01T16:37:30.431Z,100499.23
2019-04-01T16:40:18.414Z,100489.33
2019-04-01T16:43:04.581Z,100480.28
2019-04-01T16:45:50.868Z,100486.70
2019-04-01T16:48:38.268Z,100479.89
2019-04-01T16:51:24.690Z,100480.78
2019-04-01T16:54:10.694Z,100474.91
2019-04-01T16:56:56.891Z,100471.75
2019-04-01T16:59:42.886Z,100473.50
2019-04-01T17:02:32.959Z,100468.89
2019-04-01T17:05:24.124Z,100464.34
2019-04-01T17:08:11.735Z,100449.42
2019-04-01T17:10:58.374Z,100466.30
2019-04-01T17:13:44.658Z,100459.50
2019-04-01T17:16:31.990Z,100457.79
2019-04-01T17:19:18.598Z,100459.48
2019-04-01T17:22:04.386Z,100459.53
2019-04-01T17:24:50.667Z,100460.95
2019-04-01T17:27:37.039Z,100458.55
2019-04-01T17:30:23.376Z,100457.39
2019-04-01T17:33:09.919Z,100459.45
2019-04-01T17:35:58.219Z,100458.68
2019-04-01T17:38:44.146Z,100451.48
2019-04-01T17:41:30.767Z,100449.38
2019-04-01T17:44:16.918Z,100444.17
2019-04-01T17:47:03.122Z,100450.47
2019-04-01T17:49:49.774Z,100441.47
2019-04-01T17:52:35.775Z,100447.98
2019-04-01T17:55:21.703Z,100441.27
2019-04-01T17:58:07.870Z,100443.02
2019-04-01T18:00:57.052Z,100435.67
2019-04-01T18:03:42.823Z,100438.37
2019-04-01T18:06:28.851Z,100438.52
2019-04-01T18:09:16.249Z,100437.30
2019-04-01T18:12:02.282Z,100441.67
2019-04-01T18:14:48.499Z,100440.81
2019-04-01T18:17:35.305Z,100437.98
2019-04-01T18:20:21.710Z,100438.47
2019-04-01T18:23:08.119Z,100441.59
2019-04-01T18:25:54.116Z,100436.03
2019-04-01T18:28:41.228Z,100434.80
2019-04-01T18:31:27.837Z,100435.67
2019-04-01T18:34:14.019Z,100433.53
2019-04-01T18:37:01.358Z,100436.20
2019-04-01T18:39:49.770Z,100428.13
2019-04-01T18:42:35.927Z,100437.20
2019-04-01T18:45:22.684Z,100428.22
2019-04-01T18:48:08.652Z,100434.67
2019-04-01T18:50:55.163Z,100438.58
2019-04-01T18:53:41.367Z,100442.06
2019-04-01T18:56:28.220Z,100437.73
2019-04-01T18:59:15.205Z,100433.05
2019-04-01T19:02:02.132Z,100435.28
2019-04-01T19:04:48.236Z,100445.30
2019-04-01T19:07:35.491Z,100441.05
2019-04-01T19:10:22.486Z,100435.91
2019-04-01T19:13:12.338Z,100434.23
2019-04-01T19:15:58.136Z,100438.55
2019-04-01T19:18:45.116Z,100437.73
2019-04-01T19:21:31.167Z,100432.98
2019-04-01T19:24:17.743Z,100434.30
2019-04-01T19:27:03.915Z,100430.91
2019-04-01T19:29:49.860Z,100432.64
2019-04-01T19:32:35.953Z,100426.23
2019-04-01T19:35:22.130Z,100426.23
2019-04-01T19:38:08.658Z,100424.62
2019-04-01T19:40:55.147Z,100427.63
2019-04-01T19:43:41.551Z,100428.52
2019-04-01T19:46:27.553Z,100434.17
2019-04-01T19:49:13.877Z,100428.58
2019-04-01T19:52:00.545Z,100427.80
2019-04-01T19:54:47.008Z,100426.53
2019-04-01T19:57:33.411Z,100424.35
2019-04-01T20:00:27.826Z,100422.22
2019-04-01T20:03:08.619Z,100416.20
2019-04-01T20:05:54.490Z,100414.91
2019-04-01T20:08:41.191Z,100413.63
2019-04-01T20:11:28.612Z,100420.95
2019-04-01T20:14:14.735Z,100413.70
2019-04-01T20:17:02.208Z,100412.86
2019-04-01T20:19:48.563Z,100409.84
2019-04-01T20:22:35.487Z,100409.85
2019-04-01T20:25:22.412Z,100403.05
2019-04-01T20:28:08.528Z,100406.05
2019-04-01T20:30:56.603Z,100402.19
2019-04-01T20:33:43.107Z,100403.50
2019-04-01T20:36:31.319Z,100395.29
2019-04-01T20:39:17.121Z,100391.91
2019-04-01T20:42:03.651Z,100389.33
2019-04-01T20:44:49.735Z,100380.69
2019-04-01T20:47:36.249Z,100376.44
2019-04-01T20:50:22.244Z,100382.51
2019-04-01T20:53:08.884Z,100379.94
2019-04-01T20:55:54.923Z,100369.61
2019-04-01T20:58:41.239Z,100372.25
2019-04-01T21:01:28.979Z,100368.38
2019-04-01T21:04:15.166Z,100367.53
2019-04-01T21:07:01.269Z,100369.27
2019-04-01T21:09:48.236Z,100363.70
2019-04-01T21:12:34.313Z,100364.58
2019-04-01T21:15:20.988Z,100365.44
2019-04-01T21:18:07.290Z,100365.02
2019-04-01T21:20:53.696Z,100355.12
2019-04-01T21:23:39.636Z,100351.28
2019-04-01T21:26:27.181Z,100348.28
2019-04-01T21:29:13.572Z,100351.72
2019-04-01T21:31:59.912Z,100344.88
2019-04-01T21:34:46.298Z,100340.56
2019-04-01T21:37:32.532Z,100337.55
2019-04-01T21:40:18.383Z,100336.27
2019-04-01T21:43:04.990Z,100329.38
2019-04-01T21:45:51.088Z,100325.08
2019-04-01T21:48:39.025Z,100318.23
2019-04-01T21:51:25.803Z,100312.64
2019-04-01T21:54:13.992Z,100308.77
2019-04-01T21:57:00.146Z,100305.77
2019-04-01T21:59:46.448Z,100300.59
2019-04-01T22:02:36.122Z,100295.47
2019-04-01T22:05:20.721Z,100292.45
2019-04-01T22:08:07.209Z,100286.01
2019-04-01T22:10:53.748Z,100282.14
2019-04-01T22:13:40.636Z,100273.12
2019-04-01T22:16:26.876Z,100274.40
2019-04-01T22:19:12.942Z,100270.53
2019-04-01T22:22:00.738Z,100269.67
2019-04-01T22:24:46.839Z,100266.70
2019-04-01T22:27:33.154Z,100269.27
2019-04-01T22:30:19.243Z,100260.67
2019-04-01T22:33:05.544Z,100254.22
2019-04-01T22:35:54.218Z,100256.80
2019-04-01T22:38:41.279Z,100256.38
2019-04-01T22:41:29.143Z,100250.78
2019-04-01T22:44:15.727Z,100257.66
2019-04-01T22:47:02.012Z,100245.19
2019-04-01T22:49:48.612Z,100245.22
2019-04-01T22:52:35.405Z,100246.07
2019-04-01T22:55:21.862Z,100239.59
2019-04-01T22:58:08.280Z,100234.86
2019-04-01T23:00:54.393Z,100231.85
2019-04-01T23:03:40.667Z,100229.69
2019-04-01T23:06:26.917Z,100224.57
2019-04-01T23:09:12.814Z,100217.70
2019-04-01T23:11:59.509Z,100221.13
2019-04-01T23:14:46.613Z,100216.83
2019-04-01T23:17:34.020Z,100205.67
2019-04-01T23:20:19.761Z,100209.95
2019-04-01T23:23:05.871Z,100208.24
2019-04-01T23:25:52.381Z,100207.38
2019-04-01T23:28:38.488Z,100200.95
2019-04-01T23:31:24.580Z,100198.80
2019-04-01T23:34:11.384Z,100203.09
2019-04-01T23:36:57.377Z,100192.34
2019-04-01T23:39:43.677Z,100194.92
2019-04-01T23:42:30.284Z,100192.34
2019-04-01T23:45:16.693Z,100188.04
2019-04-01T23:48:02.992Z,100188.50
2019-04-01T23:50:49.792Z,100181.59
2019-04-01T23:53:35.808Z,100182.47
2019-04-01T23:56:21.897Z,100179.47
2019-04-01T23:59:10.741Z,100174.73
